createdAt,value
2022-09-04T00:09:07.518Z,51.99
2022-09-04T00:19:15.638Z,55.12
2022-09-04T00:29:24.968Z,74.05
2022-09-04T00:39:48.318Z,67.79
2022-09-04T00:50:12.021Z,50.55
2022-09-04T01:00:16.252Z,49.70
2022-09-04T01:10:19.220Z,52.17
2022-09-04T01:20:30.024Z,55.17
2022-09-04T01:30:35.132Z,72.88
2022-09-04T01:40:39.908Z,66.28
2022-09-04T01:50:44.383Z,51.23
2022-09-04T02:00:57.600Z,50.71
2022-09-04T02:11:17.262Z,52.74
2022-09-04T02:21:33.335Z,54.99
2022-09-04T02:31:44.345Z,72.57
2022-09-04T02:42:07.253Z,68.64
2022-09-04T02:52:18.157Z,52.26
2022-09-04T03:02:40.125Z,50.89
2022-09-04T03:12:47.983Z,53.08
2022-09-04T03:22:57.637Z,55.75
2022-09-04T03:33:05.185Z,73.63
2022-09-04T03:43:36.426Z,67.89
2022-09-04T03:53:56.555Z,52.76
2022-09-04T04:03:58.313Z,51.30
2022-09-04T04:14:03.067Z,54.14
2022-09-04T04:24:14.988Z,72.92
2022-09-04T04:34:32.307Z,66.04
2022-09-04T05:18:31.025Z,70.75
2022-09-04T05:28:52.886Z,52.77
2022-09-04T05:39:08.193Z,51.10
2022-09-04T05:49:17.955Z,53.44
2022-09-04T05:59:44.462Z,68.59
2022-09-04T06:09:58.276Z,62.29
2022-09-04T06:20:14.919Z,50.00
2022-09-04T06:30:17.960Z,51.01
2022-09-04T06:40:19.761Z,53.89
2022-09-04T06:50:22.394Z,47.87
2022-09-04T07:00:25.311Z,40.81
2022-09-04T07:10:36.301Z,34.69
2022-09-04T07:20:44.377Z,30.94
2022-09-04T07:30:51.296Z,26.90
2022-09-04T07:40:58.521Z,23.93
2022-09-04T07:51:23.017Z,20.80
2022-09-04T08:01:40.331Z,20.88
2022-09-04T08:12:01.249Z,18.65
2022-09-04T08:22:06.070Z,17.39
2022-09-04T08:32:36.737Z,16.40
2022-09-04T08:42:46.292Z,15.35
2022-09-04T08:53:07.035Z,15.35
2022-09-04T09:03:11.055Z,15.92
2022-09-04T09:13:31.752Z,15.58
2022-09-04T09:23:52.348Z,14.83
2022-09-04T09:34:00.744Z,14.36
2022-09-04T09:44:05.723Z,13.42
2022-09-04T09:54:13.882Z,13.28
2022-09-04T10:04:46.114Z,13.26
2022-09-04T10:15:06.189Z,13.31
2022-09-04T10:25:18.057Z,13.99
2022-09-04T10:35:32.186Z,14.88
2022-09-04T10:45:47.585Z,17.82
2022-09-04T10:56:05.926Z,22.00
2022-09-04T11:06:27.166Z,24.06
2022-09-04T11:16:57.418Z,30.17
2022-09-04T11:27:20.445Z,30.56
2022-09-04T11:37:28.470Z,31.50
2022-09-04T11:47:49.517Z,31.82
2022-09-04T11:57:51.426Z,31.96
2022-09-04T12:08:12.598Z,33.14
2022-09-04T12:18:15.543Z,32.43
2022-09-04T12:28:17.536Z,32.17
2022-09-04T12:38:39.419Z,32.72
2022-09-04T12:48:47.141Z,33.39
2022-09-04T12:58:52.642Z,36.29
2022-09-04T13:09:13.926Z,38.17
2022-09-04T13:19:20.399Z,38.89
2022-09-04T13:29:40.830Z,39.19
2022-09-04T13:39:46.510Z,38.26
2022-09-04T13:49:56.450Z,37.96
2022-09-04T14:00:02.774Z,37.35
2022-09-04T14:10:29.834Z,37.61
2022-09-04T14:20:40.866Z,37.53
2022-09-04T14:31:00.985Z,37.10
2022-09-04T14:41:10.441Z,37.47
2022-09-04T14:51:21.539Z,38.16
2022-09-04T15:01:27.035Z,38.29
2022-09-04T15:11:35.443Z,39.45
2022-09-04T15:21:41.124Z,40.92
2022-09-04T15:31:44.698Z,42.64
2022-09-04T15:41:52.888Z,41.76
2022-09-04T15:51:58.359Z,41.45
2022-09-04T16:02:12.736Z,41.16
2022-09-04T16:12:17.820Z,41.01
2022-09-04T16:22:32.222Z,43.30
2022-09-04T16:32:35.571Z,46.26
2022-09-04T16:42:51.202Z,48.71
2022-09-04T16:53:13.720Z,50.80
2022-09-04T17:03:24.254Z,52.51
2022-09-04T17:13:37.011Z,53.72
2022-09-04T17:28:56.417Z,54.93
2022-09-04T17:40:33.747Z,56.01
2022-09-04T17:44:48.937Z,56.61
2022-09-04T17:54:51.091Z,70.47
2022-09-04T18:04:54.848Z,55.18
2022-09-04T18:15:33.129Z,53.08
2022-09-04T18:25:42.621Z,52.80
2022-09-04T18:37:25.137Z,51.26
2022-09-04T18:50:29.882Z,51.28
2022-09-04T18:56:48.148Z,51.84
2022-09-04T19:07:06.747Z,51.92
2022-09-04T19:17:15.678Z,52.16
2022-09-04T19:27:27.664Z,51.43
2022-09-04T19:40:31.964Z,51.66
2022-09-04T19:48:04.536Z,53.26
2022-09-04T19:58:10.585Z,53.67
2022-09-04T20:08:26.097Z,54.76
2022-09-04T20:18:31.181Z,55.71
2022-09-04T20:28:52.168Z,57.21
2022-09-04T20:39:00.759Z,74.88
2022-09-04T20:52:50.862Z,65.64
2022-09-04T21:03:09.733Z,50.70
2022-09-04T21:10:31.347Z,49.03
2022-09-04T21:20:59.350Z,51.12
2022-09-04T21:31:17.817Z,52.22
2022-09-04T21:41:22.577Z,53.64
2022-09-04T21:51:33.432Z,56.37
2022-09-04T22:02:42.952Z,57.01
2022-09-04T22:13:38.523Z,56.49
2022-09-04T22:22:50.132Z,56.37
2022-09-04T22:33:10.794Z,57.25
2022-09-04T22:43:16.330Z,56.39
2022-09-04T22:53:23.861Z,55.81
2022-09-04T23:03:29.005Z,55.92
2022-09-04T23:13:59.327Z,55.28
2022-09-04T23:26:44.991Z,54.47
2022-09-04T23:34:32.312Z,53.98
2022-09-04T23:44:34.016Z,54.13
2022-09-04T23:54:35.835Z,54.72
